Time;durP1;ratioP1;P1;durP2;ratioP2;P2;SDS_P1;SDS_P2;PMS_P1;PMS_P2;Temp;Humidity;BMP_temperature;BMP_pressure;BME280_temperature;BME280_humidity;BME280_pressure;Samples;Min_cycle;Max_cycle;Signal;HPM_P1;HPM_P2
2023/08/13 00:01:24;;;;;;;6.47;1.67;;;;;;;;;;5039586;28;20468;-80
2023/08/13 00:03:50;;;;;;;7.05;1.35;;;;;;;;;;5039358;28;20047;-80
2023/08/13 00:06:17;;;;;;;4.93;1.20;;;;;;;;;;5055930;28;20046;-80
2023/08/13 00:08:43;;;;;;;8.15;1.40;;;;;;;;;;5039336;28;20463;-80
2023/08/13 00:11:11;;;;;;;8.30;1.27;;;;;;;;;;5056026;28;20048;-79
2023/08/13 00:13:37;;;;;;;6.50;1.42;;;;;;;;;;5055982;28;20052;-79
2023/08/13 00:16:03;;;;;;;5.57;1.52;;;;;;;;;;5055845;28;20040;-79
2023/08/13 00:18:31;;;;;;;8.98;1.27;;;;;;;;;;5039252;28;20499;-80
2023/08/13 00:20:58;;;;;;;9.00;1.13;;;;;;;;;;5039389;28;20040;-79
2023/08/13 00:23:24;;;;;;;5.70;1.15;;;;;;;;;;5055975;28;20040;-79
2023/08/13 00:25:50;;;;;;;7.57;1.50;;;;;;;;;;5038732;28;20044;-80
2023/08/13 00:28:16;;;;;;;8.07;1.35;;;;;;;;;;5055815;28;20484;-79
2023/08/13 00:30:42;;;;;;;6.90;1.67;;;;;;;;;;5038898;28;20048;-79
2023/08/13 00:33:08;;;;;;;5.22;1.17;;;;;;;;;;5055661;28;20072;-80
2023/08/13 00:35:34;;;;;;;6.55;1.20;;;;;;;;;;5055791;28;20048;-79
2023/08/13 00:38:00;;;;;;;8.13;1.63;;;;;;;;;;5052013;28;20151;-79
2023/08/13 00:40:26;;;;;;;8.20;1.42;;;;;;;;;;5052094;28;20120;-80
2023/08/13 00:42:53;;;;;;;11.15;1.73;;;;;;;;;;5035914;28;20068;-79
2023/08/13 00:45:19;;;;;;;7.93;1.92;;;;;;;;;;5052311;28;20052;-79
2023/08/13 00:47:46;;;;;;;7.28;1.67;;;;;;;;;;5052256;28;20476;-79
2023/08/13 00:50:12;;;;;;;7.57;1.38;;;;;;;;;;5052355;28;20059;-79
2023/08/13 00:52:39;;;;;;;6.53;1.45;;;;;;;;;;5052321;28;20037;-79
2023/08/13 00:55:06;;;;;;;6.47;1.50;;;;;;;;;;5051434;28;20051;-80
2023/08/13 00:57:32;;;;;;;9.02;1.63;;;;;;;;;;5035379;28;20055;-80
2023/08/13 00:59:58;;;;;;;5.93;1.58;;;;;;;;;;5052030;28;20045;-80
2023/08/13 01:02:24;;;;;;;8.95;1.75;;;;;;;;;;5052261;28;20425;-79
2023/08/13 01:04:50;;;;;;;8.27;2.10;;;;;;;;;;5036282;28;20087;-79
2023/08/13 01:07:25;;;;;;;8.45;2.03;;;;;;;;;;5051927;28;20045;-79
2023/08/13 01:09:51;;;;;;;9.13;1.60;;;;;;;;;;5035392;28;20048;-79
2023/08/13 01:12:28;;;;;;;9.95;1.90;;;;;;;;;;5051927;28;20548;-79
2023/08/13 01:15:02;;;;;;;7.80;1.48;;;;;;;;;;5052284;28;20091;-81
2023/08/13 01:17:29;;;;;;;8.00;1.60;;;;;;;;;;5051781;28;20041;-79
2023/08/13 01:19:55;;;;;;;7.40;1.98;;;;;;;;;;5054754;28;20048;-79
2023/08/13 01:22:22;;;;;;;7.35;2.17;;;;;;;;;;5055917;28;20048;-79
2023/08/13 01:24:48;;;;;;;8.55;1.70;;;;;;;;;;5054947;28;20384;-79
2023/08/13 01:27:14;;;;;;;7.78;2.10;;;;;;;;;;5055894;28;20055;-79
2023/08/13 01:29:49;;;;;;;5.45;1.85;;;;;;;;;;5055902;28;20045;-79
2023/08/13 01:32:16;;;;;;;9.52;2.33;;;;;;;;;;5055577;28;20045;-79
2023/08/13 01:34:44;;;;;;;8.48;1.95;;;;;;;;;;5055285;28;20041;-80
2023/08/13 01:37:10;;;;;;;7.18;1.70;;;;;;;;;;5054468;28;20041;-79
2023/08/13 01:39:36;;;;;;;11.60;2.50;;;;;;;;;;5054092;28;20048;-81
2023/08/13 01:42:03;;;;;;;9.10;1.88;;;;;;;;;;5038676;28;20445;-80
2023/08/13 01:44:29;;;;;;;11.93;2.20;;;;;;;;;;5055526;28;20400;-79
2023/08/13 01:46:55;;;;;;;14.60;2.30;;;;;;;;;;5055750;28;20047;-79
2023/08/13 01:49:21;;;;;;;9.00;1.95;;;;;;;;;;5038881;28;20094;-79
2023/08/13 01:51:47;;;;;;;11.98;2.53;;;;;;;;;;5054932;28;20053;-79
2023/08/13 01:54:13;;;;;;;13.73;2.35;;;;;;;;;;5038426;28;20045;-80
2023/08/13 01:56:39;;;;;;;6.82;1.75;;;;;;;;;;5054676;28;20384;-79
2023/08/13 01:59:05;;;;;;;9.10;1.70;;;;;;;;;;5022516;28;20099;-79
2023/08/13 02:01:31;;;;;;;8.95;2.10;;;;;;;;;;5055152;28;20041;-79
2023/08/13 02:03:57;;;;;;;7.88;1.65;;;;;;;;;;5055105;28;20048;-80
2023/08/13 02:06:23;;;;;;;8.98;1.80;;;;;;;;;;5054929;28;20041;-80
2023/08/13 02:08:49;;;;;;;9.68;2.13;;;;;;;;;;5054755;28;20049;-80
2023/08/13 02:11:15;;;;;;;9.18;1.85;;;;;;;;;;5038594;28;20045;-79
2023/08/13 02:13:43;;;;;;;6.22;1.40;;;;;;;;;;5055071;28;20075;-79
2023/08/13 02:16:09;;;;;;;6.97;1.40;;;;;;;;;;5054961;28;20041;-79
2023/08/13 02:18:35;;;;;;;10.57;2.10;;;;;;;;;;5054566;28;20044;-79
2023/08/13 02:21:02;;;;;;;6.43;1.50;;;;;;;;;;5054630;28;20049;-79
2023/08/13 02:23:28;;;;;;;5.15;1.88;;;;;;;;;;5037842;28;20042;-80
2023/08/13 02:25:54;;;;;;;9.50;1.95;;;;;;;;;;5054048;28;20055;-79
2023/08/13 02:28:20;;;;;;;10.43;2.28;;;;;;;;;;5038171;28;20041;-79
2023/08/13 02:30:49;;;;;;;6.68;2.00;;;;;;;;;;5037504;28;20436;-79
2023/08/13 02:33:15;;;;;;;7.28;1.40;;;;;;;;;;5054500;28;20488;-79
2023/08/13 02:35:41;;;;;;;7.47;1.70;;;;;;;;;;5037617;28;20476;-80
2023/08/13 02:38:07;;;;;;;9.10;1.88;;;;;;;;;;5053955;28;20095;-79
2023/08/13 02:40:33;;;;;;;5.72;1.73;;;;;;;;;;5037971;28;20052;-79
2023/08/13 02:42:59;;;;;;;6.13;1.92;;;;;;;;;;5037783;28;20037;-79
2023/08/13 02:45:25;;;;;;;8.95;1.88;;;;;;;;;;5054261;28;20045;-79
2023/08/13 02:47:52;;;;;;;6.05;1.65;;;;;;;;;;5054086;28;20045;-79
2023/08/13 02:50:18;;;;;;;7.95;1.35;;;;;;;;;;5054083;28;20084;-80
2023/08/13 02:52:44;;;;;;;10.93;1.77;;;;;;;;;;5054016;28;20037;-79
2023/08/13 02:55:10;;;;;;;6.43;1.60;;;;;;;;;;5053505;28;20037;-79
2023/08/13 02:57:36;;;;;;;7.75;2.05;;;;;;;;;;5055133;28;20048;-79
2023/08/13 03:00:02;;;;;;;5.60;1.55;;;;;;;;;;5037361;28;20102;-79
2023/08/13 03:02:29;;;;;;;5.80;1.20;;;;;;;;;;5053707;28;20499;-80
2023/08/13 03:04:55;;;;;;;9.57;1.90;;;;;;;;;;5053699;28;20049;-80
2023/08/13 03:07:21;;;;;;;6.95;1.83;;;;;;;;;;5053796;28;20041;-79
2023/08/13 03:09:47;;;;;;;9.52;1.63;;;;;;;;;;5053894;28;20045;-80
2023/08/13 03:12:13;;;;;;;9.20;1.90;;;;;;;;;;5053820;28;20106;-79
2023/08/13 03:14:39;;;;;;;7.88;1.70;;;;;;;;;;5053963;28;20040;-79
2023/08/13 03:17:05;;;;;;;5.45;1.95;;;;;;;;;;5053791;28;20072;-79
2023/08/13 03:19:31;;;;;;;7.45;2.17;;;;;;;;;;5037090;28;20125;-79
2023/08/13 03:21:58;;;;;;;8.20;1.70;;;;;;;;;;5036791;28;20051;-79
2023/08/13 03:24:24;;;;;;;9.52;2.20;;;;;;;;;;5053681;28;20480;-80
2023/08/13 03:26:50;;;;;;;7.20;1.38;;;;;;;;;;5053116;28;20381;-79
2023/08/13 03:29:16;;;;;;;11.25;2.28;;;;;;;;;;5054527;28;20045;-79
2023/08/13 03:31:42;;;;;;;6.32;1.60;;;;;;;;;;5053149;28;20051;-79
2023/08/13 03:34:08;;;;;;;8.65;1.95;;;;;;;;;;5053397;28;20538;-79
2023/08/13 03:36:34;;;;;;;7.10;1.67;;;;;;;;;;5036651;28;20392;-79
2023/08/13 03:39:00;;;;;;;10.90;1.80;;;;;;;;;;5052748;28;20049;-80
2023/08/13 03:41:26;;;;;;;7.18;1.73;;;;;;;;;;5036562;28;20049;-79
2023/08/13 03:43:52;;;;;;;8.10;1.83;;;;;;;;;;5052826;28;20049;-79
2023/08/13 03:46:18;;;;;;;9.55;1.70;;;;;;;;;;5053233;28;20049;-79
2023/08/13 03:48:44;;;;;;;10.50;1.58;;;;;;;;;;5036211;28;20044;-80
2023/08/13 03:51:10;;;;;;;11.18;1.85;;;;;;;;;;5053276;28;20083;-79
2023/08/13 03:53:36;;;;;;;9.77;2.10;;;;;;;;;;5053129;28;20045;-79
2023/08/13 03:56:05;;;;;;;11.13;2.05;;;;;;;;;;5052811;28;20048;-79
2023/08/13 03:58:34;;;;;;;9.13;2.08;;;;;;;;;;5036071;28;20041;-79
2023/08/13 04:01:07;;;;;;;7.65;1.50;;;;;;;;;;5052816;28;20090;-79
2023/08/13 04:03:34;;;;;;;6.80;1.52;;;;;;;;;;5052806;28;20033;-79
2023/08/13 04:06:00;;;;;;;5.97;1.42;;;;;;;;;;5052742;28;20179;-80
2023/08/13 04:08:26;;;;;;;6.70;1.45;;;;;;;;;;5052953;28;20121;-79
2023/08/13 04:10:53;;;;;;;7.22;1.60;;;;;;;;;;5052871;28;20059;-79
2023/08/13 04:13:19;;;;;;;14.88;2.13;;;;;;;;;;5052923;28;20377;-79
2023/08/13 04:15:45;;;;;;;7.97;1.70;;;;;;;;;;5052544;28;20433;-79
2023/08/13 04:18:11;;;;;;;8.32;1.85;;;;;;;;;;5052286;28;20052;-79
2023/08/13 04:20:40;;;;;;;7.90;1.45;;;;;;;;;;5052341;28;20049;-80
2023/08/13 04:23:06;;;;;;;10.63;1.88;;;;;;;;;;5052298;28;20045;-79
2023/08/13 04:25:33;;;;;;;9.52;2.08;;;;;;;;;;5051865;28;20095;-79
2023/08/13 04:27:59;;;;;;;8.95;2.28;;;;;;;;;;5052264;28;20488;-79
2023/08/13 04:30:25;;;;;;;8.38;1.92;;;;;;;;;;5052532;28;20055;-79
2023/08/13 04:32:55;;;;;;;8.52;2.28;;;;;;;;;;5052538;28;20079;-79
2023/08/13 04:35:24;;;;;;;12.15;2.22;;;;;;;;;;5052476;28;20041;-80
2023/08/13 04:37:51;;;;;;;9.73;2.50;;;;;;;;;;5051903;28;20095;-80
2023/08/13 04:40:17;;;;;;;6.25;1.98;;;;;;;;;;5052875;28;20426;-80
2023/08/13 04:42:43;;;;;;;10.32;2.38;;;;;;;;;;5052140;28;20077;-79
2023/08/13 04:45:11;;;;;;;10.77;2.28;;;;;;;;;;5052153;28;20385;-80
2023/08/13 04:47:37;;;;;;;10.05;2.35;;;;;;;;;;5052501;28;20052;-80
2023/08/13 04:50:03;;;;;;;6.30;2.28;;;;;;;;;;5052608;28;20084;-79
2023/08/13 04:52:29;;;;;;;9.27;2.20;;;;;;;;;;5052995;28;20484;-79
2023/08/13 04:54:55;;;;;;;8.07;2.25;;;;;;;;;;5022191;28;20106;-79
2023/08/13 04:57:21;;;;;;;8.85;1.95;;;;;;;;;;5056426;28;20047;-79
2023/08/13 04:59:47;;;;;;;5.30;1.80;;;;;;;;;;5056294;28;20041;-79
2023/08/13 05:02:13;;;;;;;5.38;2.00;;;;;;;;;;5039700;28;20044;-80
2023/08/13 05:04:39;;;;;;;6.47;1.88;;;;;;;;;;5048449;28;20476;-79
2023/08/13 05:07:06;;;;;;;8.65;2.63;;;;;;;;;;5036148;28;20124;-80
2023/08/13 05:09:34;;;;;;;6.90;2.20;;;;;;;;;;5032860;28;20057;-79
2023/08/13 05:12:00;;;;;;;6.35;1.90;;;;;;;;;;5045268;28;20395;-80
2023/08/13 05:14:26;;;;;;;8.73;2.13;;;;;;;;;;5023395;28;20091;-79
2023/08/13 05:16:54;;;;;;;7.68;2.10;;;;;;;;;;5035686;28;20042;-80
2023/08/13 05:19:20;;;;;;;8.18;2.45;;;;;;;;;;5036064;28;20377;-79
2023/08/13 05:21:46;;;;;;;7.85;2.10;;;;;;;;;;5019851;28;20048;-79
2023/08/13 05:24:12;;;;;;;5.45;2.22;;;;;;;;;;5031137;28;20493;-80
2023/08/13 05:26:38;;;;;;;6.47;2.00;;;;;;;;;;5018645;28;20056;-80
2023/08/13 05:29:05;;;;;;;5.82;2.20;;;;;;;;;;5035381;28;20041;-80
2023/08/13 05:31:31;;;;;;;8.23;2.13;;;;;;;;;;5035629;28;20041;-80
2023/08/13 05:33:58;;;;;;;9.30;2.50;;;;;;;;;;5035469;28;20076;-80
2023/08/13 05:36:25;;;;;;;7.95;2.15;;;;;;;;;;5035289;28;20091;-81
2023/08/13 05:38:51;;;;;;;7.00;2.75;;;;;;;;;;5025048;28;20460;-80
2023/08/13 05:41:17;;;;;;;5.38;1.75;;;;;;;;;;5010724;28;20056;-80
2023/08/13 05:43:43;;;;;;;7.10;2.63;;;;;;;;;;5010958;28;20038;-80
2023/08/13 05:46:09;;;;;;;10.20;2.53;;;;;;;;;;5006350;28;20034;-80
2023/08/13 05:48:35;;;;;;;9.98;2.72;;;;;;;;;;4994686;28;20124;-80
2023/08/13 05:51:01;;;;;;;6.30;1.90;;;;;;;;;;5005319;28;20042;-80
2023/08/13 05:53:27;;;;;;;13.57;2.13;;;;;;;;;;4989352;28;20050;-80
2023/08/13 05:55:54;;;;;;;7.00;1.83;;;;;;;;;;4995175;28;20046;-80
2023/08/13 05:58:20;;;;;;;4.70;2.13;;;;;;;;;;4995609;28;20082;-80
2023/08/13 06:00:46;;;;;;;9.07;2.38;;;;;;;;;;4996573;28;20505;-80
2023/08/13 06:03:13;;;;;;;14.52;2.53;;;;;;;;;;4979922;28;20050;-80
2023/08/13 06:05:39;;;;;;;9.88;2.22;;;;;;;;;;4995325;28;20043;-80
2023/08/13 06:08:05;;;;;;;8.02;2.65;;;;;;;;;;4995788;28;20081;-80
2023/08/13 06:10:31;;;;;;;5.80;1.88;;;;;;;;;;4979440;28;20133;-80
2023/08/13 06:12:57;;;;;;;8.35;1.88;;;;;;;;;;4981012;28;20038;-80
2023/08/13 06:15:24;;;;;;;9.60;2.17;;;;;;;;;;4974313;28;20509;-80
2023/08/13 06:17:50;;;;;;;5.25;1.90;;;;;;;;;;5006964;28;20077;-81
2023/08/13 06:20:17;;;;;;;7.55;2.10;;;;;;;;;;5004653;28;20093;-80
2023/08/13 06:22:44;;;;;;;9.45;2.03;;;;;;;;;;5004095;28;20116;-80
2023/08/13 06:25:10;;;;;;;4.28;1.85;;;;;;;;;;5008483;28;20042;-81
2023/08/13 06:27:36;;;;;;;12.05;2.15;;;;;;;;;;5014829;28;20045;-80
2023/08/13 06:30:02;;;;;;;12.00;2.38;;;;;;;;;;5015113;28;20060;-79
2023/08/13 06:32:28;;;;;;;8.93;2.15;;;;;;;;;;5014997;28;20449;-80
2023/08/13 06:34:54;;;;;;;6.90;1.90;;;;;;;;;;4998405;28;20136;-80
2023/08/13 06:37:21;;;;;;;7.68;2.10;;;;;;;;;;4995041;28;20412;-80
2023/08/13 06:39:47;;;;;;;8.30;2.33;;;;;;;;;;5017744;28;20053;-80
2023/08/13 06:42:13;;;;;;;9.13;2.17;;;;;;;;;;5018416;28;20477;-80
2023/08/13 06:44:39;;;;;;;7.05;1.77;;;;;;;;;;5018129;28;20432;-80
2023/08/13 06:47:05;;;;;;;9.02;1.65;;;;;;;;;;5018110;28;20048;-80
2023/08/13 06:49:31;;;;;;;6.45;2.15;;;;;;;;;;5018027;28;20083;-80
2023/08/13 06:51:57;;;;;;;9.05;2.42;;;;;;;;;;5001804;28;20469;-80
2023/08/13 06:54:24;;;;;;;6.72;1.85;;;;;;;;;;5001505;28;20042;-81
2023/08/13 06:56:50;;;;;;;14.63;2.10;;;;;;;;;;5000932;28;20048;-81
2023/08/13 06:59:16;;;;;;;10.75;2.08;;;;;;;;;;5017467;28;20046;-80
2023/08/13 07:01:42;;;;;;;5.40;1.40;;;;;;;;;;5017539;28;20048;-80
2023/08/13 07:04:08;;;;;;;7.57;1.80;;;;;;;;;;5017798;28;20427;-80
2023/08/13 07:06:34;;;;;;;7.28;1.50;;;;;;;;;;5001376;28;20037;-80
2023/08/13 07:09:03;;;;;;;8.43;1.83;;;;;;;;;;5001042;28;20045;-80
2023/08/13 07:11:32;;;;;;;8.52;1.70;;;;;;;;;;5017909;28;20049;-80
2023/08/13 07:13:58;;;;;;;7.05;1.23;;;;;;;;;;5017499;28;20393;-80
2023/08/13 07:16:24;;;;;;;8.50;1.10;;;;;;;;;;5017147;28;20104;-80
2023/08/13 07:18:50;;;;;;;9.55;1.60;;;;;;;;;;5016627;28;20465;-80
2023/08/13 07:21:16;;;;;;;3.88;1.00;;;;;;;;;;5017298;28;20041;-80
2023/08/13 07:23:42;;;;;;;7.47;1.40;;;;;;;;;;5017050;28;20095;-80
2023/08/13 07:26:09;;;;;;;9.68;1.25;;;;;;;;;;5029622;28;20045;-80
2023/08/13 07:28:38;;;;;;;7.10;1.38;;;;;;;;;;5020448;28;20465;-80
2023/08/13 07:31:04;;;;;;;6.97;1.05;;;;;;;;;;5020590;28;20059;-80
2023/08/13 07:33:34;;;;;;;5.93;1.00;;;;;;;;;;5036864;28;20048;-80
2023/08/13 07:36:00;;;;;;;6.65;1.40;;;;;;;;;;5036794;28;20036;-80
2023/08/13 07:38:27;;;;;;;6.70;1.52;;;;;;;;;;5036175;28;20456;-80
2023/08/13 07:40:55;;;;;;;6.80;1.10;;;;;;;;;;5020486;28;20057;-80
2023/08/13 07:43:21;;;;;;;6.50;1.20;;;;;;;;;;5036771;28;20041;-80
2023/08/13 07:45:47;;;;;;;6.35;1.20;;;;;;;;;;5036578;28;20041;-79
2023/08/13 07:48:13;;;;;;;6.90;1.10;;;;;;;;;;5036522;28;20045;-80
2023/08/13 07:50:40;;;;;;;7.05;1.67;;;;;;;;;;5036401;28;20037;-80
2023/08/13 07:53:06;;;;;;;5.57;1.42;;;;;;;;;;5016361;28;20040;-80
2023/08/13 07:55:33;;;;;;;7.03;1.67;;;;;;;;;;5017707;28;20055;-80
2023/08/13 07:57:59;;;;;;;6.38;1.23;;;;;;;;;;5019354;28;20098;-81
2023/08/13 08:00:26;;;;;;;5.65;1.10;;;;;;;;;;5036123;28;20076;-81
2023/08/13 08:02:53;;;;;;;6.85;0.98;;;;;;;;;;5019585;28;20045;-80
2023/08/13 08:05:19;;;;;;;6.15;1.10;;;;;;;;;;5035784;28;20177;-81
2023/08/13 08:07:45;;;;;;;4.85;0.98;;;;;;;;;;5019489;28;20492;-80
2023/08/13 08:10:12;;;;;;;6.90;1.00;;;;;;;;;;5036262;28;20059;-80
2023/08/13 08:12:38;;;;;;;4.25;1.02;;;;;;;;;;5035622;28;20041;-81
2023/08/13 08:15:05;;;;;;;7.10;0.80;;;;;;;;;;5035132;28;20044;-80
2023/08/13 08:17:31;;;;;;;5.28;1.00;;;;;;;;;;5035119;28;20041;-80
2023/08/13 08:19:59;;;;;;;6.55;1.38;;;;;;;;;;5018736;28;20145;-81
2023/08/13 08:22:25;;;;;;;4.63;0.70;;;;;;;;;;5018207;28;20044;-80
2023/08/13 08:24:52;;;;;;;6.05;1.75;;;;;;;;;;5034692;28;20045;-81
2023/08/13 08:27:18;;;;;;;7.38;1.33;;;;;;;;;;5033478;28;20045;-80
2023/08/13 08:29:44;;;;;;;4.47;1.13;;;;;;;;;;5017896;28;20051;-80
2023/08/13 08:32:10;;;;;;;3.53;0.88;;;;;;;;;;5035043;28;20041;-80
2023/08/13 08:34:36;;;;;;;4.40;1.02;;;;;;;;;;5018807;28;20045;-81
2023/08/13 08:37:04;;;;;;;3.45;0.65;;;;;;;;;;5035348;28;20480;-81
2023/08/13 08:39:31;;;;;;;5.10;0.80;;;;;;;;;;5034628;28;20095;-82
2023/08/13 08:41:57;;;;;;;4.70;0.65;;;;;;;;;;5018595;28;20049;-79
2023/08/13 08:44:24;;;;;;;5.45;0.77;;;;;;;;;;5035367;28;20439;-80
2023/08/13 08:46:52;;;;;;;3.75;0.60;;;;;;;;;;5035734;28;20091;-79
2023/08/13 08:49:19;;;;;;;5.45;0.63;;;;;;;;;;5035793;28;20122;-80
2023/08/13 08:51:45;;;;;;;2.40;0.40;;;;;;;;;;5035862;28;20080;-80
2023/08/13 08:54:12;;;;;;;4.88;0.70;;;;;;;;;;5035761;28;20052;-79
2023/08/13 08:56:38;;;;;;;4.28;0.68;;;;;;;;;;5035387;28;20066;-80
2023/08/13 08:59:07;;;;;;;4.05;0.70;;;;;;;;;;5035312;28;20391;-79
2023/08/13 09:01:34;;;;;;;3.45;0.60;;;;;;;;;;5035714;28;20052;-79
2023/08/13 09:04:00;;;;;;;3.15;0.50;;;;;;;;;;5035735;28;20350;-80
2023/08/13 09:06:45;;;;;;;5.63;0.60;;;;;;;;;;5019216;28;20041;-79
2023/08/13 09:09:11;;;;;;;5.22;0.65;;;;;;;;;;5035702;28;20049;-79
2023/08/13 09:11:37;;;;;;;6.85;0.77;;;;;;;;;;5035623;28;20037;-80
2023/08/13 09:14:04;;;;;;;3.53;0.52;;;;;;;;;;5019180;28;20153;-80
2023/08/13 09:16:30;;;;;;;5.45;0.93;;;;;;;;;;5035405;28;20041;-80
2023/08/13 09:18:56;;;;;;;5.38;0.70;;;;;;;;;;5035349;28;20045;-80
2023/08/13 09:21:25;;;;;;;3.00;0.55;;;;;;;;;;5002810;28;20505;-80
2023/08/13 09:23:55;;;;;;;3.10;0.45;;;;;;;;;;5035330;28;20075;-79
2023/08/13 09:26:24;;;;;;;4.32;0.50;;;;;;;;;;5034976;28;20058;-80
2023/08/13 09:28:51;;;;;;;2.85;0.40;;;;;;;;;;5035454;28;20174;-80
2023/08/13 09:31:17;;;;;;;4.15;0.40;;;;;;;;;;5018879;28;20041;-79
2023/08/13 09:33:45;;;;;;;3.90;0.40;;;;;;;;;;5035491;28;20041;-79
2023/08/13 09:36:12;;;;;;;2.75;0.30;;;;;;;;;;5035450;28;20040;-80
2023/08/13 09:38:38;;;;;;;7.28;0.30;;;;;;;;;;5034942;28;20063;-79
2023/08/13 09:41:05;;;;;;;2.78;0.63;;;;;;;;;;5037135;28;20392;-79
2023/08/13 09:43:32;;;;;;;2.70;0.30;;;;;;;;;;5038796;28;20048;-80
2023/08/13 09:46:00;;;;;;;3.17;0.30;;;;;;;;;;5039034;28;20047;-79
2023/08/13 09:48:27;;;;;;;1.27;0.30;;;;;;;;;;5022571;28;20093;-79
2023/08/13 09:50:56;;;;;;;2.17;0.25;;;;;;;;;;5039138;28;20070;-79
2023/08/13 09:53:23;;;;;;;1.85;0.30;;;;;;;;;;5038884;28;20124;-79
2023/08/13 09:55:52;;;;;;;1.67;0.20;;;;;;;;;;5021716;28;20135;-80
2023/08/13 09:58:19;;;;;;;3.78;0.20;;;;;;;;;;5021937;28;20481;-79
2023/08/13 10:00:45;;;;;;;1.60;0.25;;;;;;;;;;5022664;28;20380;-80
2023/08/13 10:03:12;;;;;;;2.25;0.40;;;;;;;;;;5038663;28;20084;-80
2023/08/13 10:05:38;;;;;;;1.42;0.25;;;;;;;;;;5038599;28;20127;-79
2023/08/13 10:08:05;;;;;;;1.55;0.38;;;;;;;;;;5038791;28;20041;-80
2023/08/13 10:10:32;;;;;;;4.15;0.30;;;;;;;;;;5038120;28;20392;-80
2023/08/13 10:12:58;;;;;;;2.08;0.20;;;;;;;;;;5038623;28;20424;-80
2023/08/13 10:15:24;;;;;;;1.92;0.20;;;;;;;;;;5022156;28;20049;-80
2023/08/13 10:17:50;;;;;;;1.05;0.20;;;;;;;;;;5021759;28;20131;-79
2023/08/13 10:20:18;;;;;;;2.72;0.30;;;;;;;;;;5038414;28;20074;-80
2023/08/13 10:22:45;;;;;;;3.95;0.35;;;;;;;;;;5021881;28;20037;-80
2023/08/13 10:25:25;;;;;;;1.73;0.20;;;;;;;;;;5038112;28;20045;-80
2023/08/13 10:27:53;;;;;;;1.73;0.20;;;;;;;;;;5038466;28;20133;-80
2023/08/13 10:30:19;;;;;;;2.85;0.30;;;;;;;;;;5021692;28;20110;-80
2023/08/13 10:32:55;;;;;;;3.05;0.30;;;;;;;;;;5038237;28;20048;-80
2023/08/13 10:35:25;;;;;;;1.65;0.30;;;;;;;;;;5038026;28;20049;-80
2023/08/13 10:37:52;;;;;;;2.60;0.28;;;;;;;;;;5037758;28;20123;-80
2023/08/13 10:40:19;;;;;;;2.75;0.20;;;;;;;;;;5021200;28;20053;-80
2023/08/13 10:42:52;;;;;;;2.10;0.20;;;;;;;;;;5038011;28;20422;-79
2023/08/13 10:45:19;;;;;;;2.10;0.30;;;;;;;;;;5037895;28;20045;-79
2023/08/13 10:47:46;;;;;;;1.88;0.20;;;;;;;;;;5037769;28;20040;-80
2023/08/13 10:50:20;;;;;;;1.42;0.22;;;;;;;;;;5037517;28;20558;-81
2023/08/13 10:52:46;;;;;;;0.80;0.10;;;;;;;;;;5037754;28;20044;-80
2023/08/13 10:55:12;;;;;;;1.08;0.20;;;;;;;;;;5055197;28;20508;-80
2023/08/13 10:57:42;;;;;;;1.85;0.20;;;;;;;;;;5037134;28;20127;-79
2023/08/13 11:00:13;;;;;;;1.30;0.20;;;;;;;;;;5037662;28;20032;-80
2023/08/13 11:02:39;;;;;;;3.25;0.60;;;;;;;;;;5037406;28;20089;-80
2023/08/13 11:05:05;;;;;;;1.88;0.20;;;;;;;;;;5021157;28;20041;-80
2023/08/13 11:07:31;;;;;;;2.40;0.20;;;;;;;;;;5037563;28;20045;-80
2023/08/13 11:09:57;;;;;;;1.83;0.20;;;;;;;;;;5037378;28;20473;-80
2023/08/13 11:12:24;;;;;;;1.85;0.30;;;;;;;;;;5020980;28;20392;-81
2023/08/13 11:14:50;;;;;;;2.80;0.30;;;;;;;;;;5037514;28;20380;-80
2023/08/13 11:17:16;;;;;;;2.75;0.30;;;;;;;;;;5036982;28;20041;-80
2023/08/13 11:19:42;;;;;;;2.13;0.40;;;;;;;;;;5037425;28;20075;-80
2023/08/13 11:22:08;;;;;;;3.45;0.30;;;;;;;;;;5037252;28;20043;-80
2023/08/13 11:24:34;;;;;;;1.52;0.20;;;;;;;;;;5037130;28;20056;-80
2023/08/13 11:27:00;;;;;;;1.80;0.20;;;;;;;;;;5003978;28;20049;-80
2023/08/13 11:29:26;;;;;;;1.48;0.20;;;;;;;;;;5036742;28;20534;-80
2023/08/13 11:31:52;;;;;;;2.60;0.30;;;;;;;;;;5054439;28;20095;-81
2023/08/13 11:34:19;;;;;;;2.17;0.30;;;;;;;;;;5004020;28;20066;-80
2023/08/13 11:36:45;;;;;;;1.75;0.22;;;;;;;;;;5036842;28;20080;-80
2023/08/13 11:39:12;;;;;;;2.38;0.30;;;;;;;;;;5036448;28;20056;-80
2023/08/13 11:41:38;;;;;;;2.40;0.20;;;;;;;;;;5036681;28;20052;-80
2023/08/13 11:44:07;;;;;;;4.05;0.40;;;;;;;;;;5036731;28;20052;-80
2023/08/13 11:46:52;;;;;;;1.30;0.30;;;;;;;;;;5036483;28;20041;-80
2023/08/13 11:49:19;;;;;;;3.83;0.40;;;;;;;;;;5020394;28;20041;-80
2023/08/13 11:51:45;;;;;;;2.83;0.88;;;;;;;;;;5037141;28;20424;-80
2023/08/13 11:54:11;;;;;;;3.78;0.40;;;;;;;;;;5020181;28;20052;-80
2023/08/13 11:56:39;;;;;;;2.40;0.40;;;;;;;;;;5036013;28;20045;-80
2023/08/13 11:59:08;;;;;;;2.25;0.30;;;;;;;;;;5035966;28;20041;-81
2023/08/13 12:01:35;;;;;;;4.93;0.93;;;;;;;;;;5036508;28;20041;-80
2023/08/13 12:04:06;;;;;;;3.45;0.50;;;;;;;;;;5019403;28;20126;-80
2023/08/13 12:06:35;;;;;;;4.10;0.60;;;;;;;;;;5036135;28;20610;-80
2023/08/13 12:09:03;;;;;;;3.00;0.50;;;;;;;;;;5036505;28;20084;-80
2023/08/13 12:11:30;;;;;;;4.82;0.68;;;;;;;;;;5019647;28;20056;-81
2023/08/13 12:13:56;;;;;;;3.67;0.50;;;;;;;;;;5036368;28;20476;-80
2023/08/13 12:16:22;;;;;;;5.90;0.70;;;;;;;;;;5019841;28;20080;-80
2023/08/13 12:18:48;;;;;;;4.68;0.40;;;;;;;;;;5036318;28;20036;-80
2023/08/13 12:21:14;;;;;;;3.33;0.40;;;;;;;;;;5019553;28;20496;-80
2023/08/13 12:23:40;;;;;;;5.28;0.68;;;;;;;;;;5036077;28;20129;-80
2023/08/13 12:26:06;;;;;;;5.93;0.70;;;;;;;;;;5035593;28;20037;-80
2023/08/13 12:28:32;;;;;;;3.60;0.93;;;;;;;;;;5019750;28;20098;-80
2023/08/13 12:30:58;;;;;;;3.42;0.50;;;;;;;;;;5036164;28;20472;-80
2023/08/13 12:33:24;;;;;;;2.95;0.50;;;;;;;;;;5053869;28;20051;-80
2023/08/13 12:35:50;;;;;;;3.40;0.73;;;;;;;;;;5019500;28;20078;-80
2023/08/13 12:38:16;;;;;;;7.05;0.77;;;;;;;;;;5035900;28;20040;-80
2023/08/13 12:40:42;;;;;;;4.28;0.55;;;;;;;;;;5035262;28;20061;-80
2023/08/13 12:43:08;;;;;;;17.30;1.17;;;;;;;;;;5035972;28;20048;-80
2023/08/13 12:45:35;;;;;;;6.05;0.70;;;;;;;;;;5035796;28;20094;-80
2023/08/13 12:48:01;;;;;;;5.13;1.10;;;;;;;;;;5035860;28;20048;-80
2023/08/13 12:50:27;;;;;;;4.32;0.70;;;;;;;;;;5035640;28;20357;-80
2023/08/13 12:52:53;;;;;;;6.60;0.77;;;;;;;;;;5036043;28;20100;-80
2023/08/13 12:55:19;;;;;;;4.22;0.60;;;;;;;;;;5035740;28;20037;-81
2023/08/13 12:57:45;;;;;;;3.97;0.90;;;;;;;;;;5002560;28;20136;-80
2023/08/13 13:00:11;;;;;;;4.32;0.93;;;;;;;;;;5019401;28;20365;-80
2023/08/13 13:02:37;;;;;;;3.25;0.80;;;;;;;;;;5036026;28;20040;-80
2023/08/13 13:05:03;;;;;;;5.15;0.88;;;;;;;;;;5035581;28;20080;-81
2023/08/13 13:07:30;;;;;;;3.10;0.70;;;;;;;;;;5035690;28;20496;-80
2023/08/13 13:09:56;;;;;;;2.80;0.73;;;;;;;;;;5019251;28;20098;-80
2023/08/13 13:12:23;;;;;;;5.90;0.82;;;;;;;;;;5035979;28;20072;-80
2023/08/13 13:14:49;;;;;;;3.45;0.60;;;;;;;;;;5036974;28;20044;-80
2023/08/13 13:17:15;;;;;;;2.63;0.60;;;;;;;;;;5057170;28;20037;-80
2023/08/13 13:19:42;;;;;;;4.00;0.55;;;;;;;;;;5023221;28;20122;-80
2023/08/13 13:22:09;;;;;;;1.63;0.30;;;;;;;;;;5023237;28;20068;-80
2023/08/13 13:24:35;;;;;;;3.85;0.47;;;;;;;;;;5039365;28;20048;-81
2023/08/13 13:27:01;;;;;;;4.40;0.50;;;;;;;;;;5039169;28;20076;-80
2023/08/13 13:29:27;;;;;;;2.95;0.45;;;;;;;;;;5039345;28;20037;-81
2023/08/13 13:31:53;;;;;;;4.20;0.55;;;;;;;;;;5039215;28;20132;-80
2023/08/13 13:34:19;;;;;;;2.55;0.40;;;;;;;;;;5039429;28;20130;-80
2023/08/13 13:36:45;;;;;;;2.45;0.70;;;;;;;;;;5006263;28;20045;-80
2023/08/13 13:39:11;;;;;;;4.20;0.90;;;;;;;;;;5038606;28;20361;-81
2023/08/13 13:41:37;;;;;;;5.18;0.77;;;;;;;;;;5022757;28;20428;-80
2023/08/13 13:44:04;;;;;;;3.13;0.50;;;;;;;;;;5022645;28;20052;-80
2023/08/13 13:46:30;;;;;;;2.70;0.45;;;;;;;;;;5038993;28;20076;-80
2023/08/13 13:48:56;;;;;;;4.90;0.73;;;;;;;;;;5038969;28;20048;-80
2023/08/13 13:51:22;;;;;;;3.33;0.50;;;;;;;;;;5038886;28;20048;-80
2023/08/13 13:53:48;;;;;;;2.10;0.50;;;;;;;;;;5038324;28;20393;-81
2023/08/13 13:56:15;;;;;;;6.10;0.80;;;;;;;;;;5021518;28;20045;-81
2023/08/13 13:58:41;;;;;;;5.53;0.70;;;;;;;;;;5022070;28;20044;-82
2023/08/13 14:01:07;;;;;;;3.00;0.40;;;;;;;;;;5038558;28;20119;-82
2023/08/13 14:03:33;;;;;;;2.58;0.43;;;;;;;;;;5022301;28;20041;-83
2023/08/13 14:05:59;;;;;;;2.08;0.47;;;;;;;;;;5021983;28;20041;-82
2023/08/13 14:08:25;;;;;;;5.13;0.68;;;;;;;;;;5021791;28;20048;-82
2023/08/13 14:10:51;;;;;;;3.47;0.50;;;;;;;;;;5022334;28;20051;-82
2023/08/13 14:13:17;;;;;;;5.50;0.40;;;;;;;;;;5022028;28;20107;-83
2023/08/13 14:15:44;;;;;;;2.38;0.60;;;;;;;;;;5038527;28;20051;-83
2023/08/13 14:18:10;;;;;;;8.48;0.73;;;;;;;;;;5021807;28;20099;-82
2023/08/13 14:20:36;;;;;;;3.83;0.50;;;;;;;;;;5038302;28;20055;-81
2023/08/13 14:23:03;;;;;;;4.22;0.55;;;;;;;;;;5038096;28;20041;-82
2023/08/13 14:25:29;;;;;;;5.20;0.57;;;;;;;;;;5021925;28;20041;-82
2023/08/13 14:27:55;;;;;;;4.00;0.50;;;;;;;;;;5020747;28;20044;-83
2023/08/13 14:30:21;;;;;;;4.03;0.63;;;;;;;;;;5021386;28;20476;-79
2023/08/13 14:32:47;;;;;;;6.60;0.82;;;;;;;;;;5038248;28;20090;-80
2023/08/13 14:35:13;;;;;;;2.47;0.70;;;;;;;;;;5037947;28;20075;-82
2023/08/13 14:37:39;;;;;;;3.83;0.30;;;;;;;;;;5037573;28;20151;-82
2023/08/13 14:40:06;;;;;;;5.10;0.70;;;;;;;;;;5021340;28;20491;-82